sensor_id;sensor_type;location;lat;lon;timestamp;pressure;altitude;pressure_sealevel;temperature
71897;BMP280;59767;51.344;12.362;2023-02-21T00:02:30;161262.06;;;10.19
71897;BMP280;59767;51.344;12.362;2023-02-21T00:05:52;161263.38;;;10.20
71897;BMP280;59767;51.344;12.362;2023-02-21T00:09:15;161248.94;;;10.14
71897;BMP280;59767;51.344;12.362;2023-02-21T00:12:37;161260.75;;;10.19
71897;BMP280;59767;51.344;12.362;2023-02-21T00:16:00;161239.81;;;10.11
71897;BMP280;59767;51.344;12.362;2023-02-21T00:19:23;161248.94;;;10.14
71897;BMP280;59767;51.344;12.362;2023-02-21T00:22:46;161254.19;;;10.16
71897;BMP280;59767;51.344;12.362;2023-02-21T00:26:09;161263.38;;;10.20
71897;BMP280;59767;51.344;12.362;2023-02-21T00:29:32;161245.06;;;10.13
71897;BMP280;59767;51.344;12.362;2023-02-21T00:32:55;161252.88;;;10.16
71897;BMP280;59767;51.344;12.362;2023-02-21T00:36:18;161246.38;;;10.13
71897;BMP280;59767;51.344;12.362;2023-02-21T00:39:41;161263.38;;;10.20
71897;BMP280;59767;51.344;12.362;2023-02-21T00:43:04;161237.22;;;10.10
71897;BMP280;59767;51.344;12.362;2023-02-21T00:46:27;161248.94;;;10.14
71897;BMP280;59767;51.344;12.362;2023-02-21T00:49:49;161260.75;;;10.19
71897;BMP280;59767;51.344;12.362;2023-02-21T00:53:12;161252.88;;;10.16
71897;BMP280;59767;51.344;12.362;2023-02-21T00:56:35;161254.19;;;10.16
71897;BMP280;59767;51.344;12.362;2023-02-21T00:59:58;161234.59;;;10.09
71897;BMP280;59767;51.344;12.362;2023-02-21T01:03:21;161251.53;;;10.15
71897;BMP280;59767;51.344;12.362;2023-02-21T01:06:44;161250.28;;;10.15
71897;BMP280;59767;51.344;12.362;2023-02-21T01:10:07;161251.53;;;10.15
71897;BMP280;59767;51.344;12.362;2023-02-21T01:13:29;161239.81;;;10.11
71897;BMP280;59767;51.344;12.362;2023-02-21T01:16:52;161247.66;;;10.14
71897;BMP280;59767;51.344;12.362;2023-02-21T01:20:16;161234.59;;;10.09
71897;BMP280;59767;51.344;12.362;2023-02-21T01:23:39;161241.13;;;10.11
71897;BMP280;59767;51.344;12.362;2023-02-21T01:27:02;161251.53;;;10.15
71897;BMP280;59767;51.344;12.362;2023-02-21T01:30:25;161237.22;;;10.10
71897;BMP280;59767;51.344;12.362;2023-02-21T01:33:47;161224.13;;;10.05
71897;BMP280;59767;51.344;12.362;2023-02-21T01:37:10;161231.94;;;10.08
71897;BMP280;59767;51.344;12.362;2023-02-21T01:40:33;161241.13;;;10.11
71897;BMP280;59767;51.344;12.362;2023-02-21T01:43:59;161251.53;;;10.15
71897;BMP280;59767;51.344;12.362;2023-02-21T01:47:22;161248.94;;;10.14
71897;BMP280;59767;51.344;12.362;2023-02-21T01:50:45;161239.81;;;10.11
71897;BMP280;59767;51.344;12.362;2023-02-21T01:54:08;161239.81;;;10.11
71897;BMP280;59767;51.344;12.362;2023-02-21T01:57:32;161251.53;;;10.15
71897;BMP280;59767;51.344;12.362;2023-02-21T02:00:56;161238.53;;;10.10
71897;BMP280;59767;51.344;12.362;2023-02-21T02:04:19;161233.28;;;10.08
71897;BMP280;59767;51.344;12.362;2023-02-21T02:07:42;161251.53;;;10.15
71897;BMP280;59767;51.344;12.362;2023-02-21T02:11:30;161229.34;;;10.07
71897;BMP280;59767;51.344;12.362;2023-02-21T02:22:06;161224.13;;;10.05
71897;BMP280;59767;51.344;12.362;2023-02-21T02:25:20;161190.09;;;9.92
71897;BMP280;59767;51.344;12.362;2023-02-21T02:36:05;161216.28;;;10.02
71897;BMP280;59767;51.344;12.362;2023-02-21T02:43:02;161203.22;;;9.97
71897;BMP280;59767;51.344;12.362;2023-02-21T02:46:19;161214.94;;;10.01
71897;BMP280;59767;51.344;12.362;2023-02-21T02:49:27;161213.66;;;10.01
71897;BMP280;59767;51.344;12.362;2023-02-21T02:52:31;161216.28;;;10.02
71897;BMP280;59767;51.344;12.362;2023-02-21T02:59:03;161203.22;;;9.97
71897;BMP280;59767;51.344;12.362;2023-02-21T03:08:56;161207.09;;;9.98
71897;BMP280;59767;51.344;12.362;2023-02-21T03:12:19;161194.03;;;9.93
71897;BMP280;59767;51.344;12.362;2023-02-21T03:15:44;161190.09;;;9.92
71897;BMP280;59767;51.344;12.362;2023-02-21T03:19:05;161196.69;;;9.94
71897;BMP280;59767;51.344;12.362;2023-02-21T03:22:13;161224.13;;;10.05
71897;BMP280;59767;51.344;12.362;2023-02-21T03:25:20;161214.94;;;10.01
71897;BMP280;59767;51.344;12.362;2023-02-21T03:28:24;161204.53;;;9.97
71897;BMP280;59767;51.344;12.362;2023-02-21T03:31:34;161200.59;;;9.96
71897;BMP280;59767;51.344;12.362;2023-02-21T03:34:41;161224.13;;;10.05
71897;BMP280;59767;51.344;12.362;2023-02-21T03:37:48;161218.88;;;10.03
71897;BMP280;59767;51.344;12.362;2023-02-21T03:40:55;161203.22;;;9.97
71897;BMP280;59767;51.344;12.362;2023-02-21T03:43:59;161197.94;;;9.95
71897;BMP280;59767;51.344;12.362;2023-02-21T03:47:03;161212.34;;;10.00
71897;BMP280;59767;51.344;12.362;2023-02-21T03:50:07;161226.75;;;10.06
71897;BMP280;59767;51.344;12.362;2023-02-21T03:53:12;161221.53;;;10.04
71897;BMP280;59767;51.344;12.362;2023-02-21T03:56:16;161212.34;;;10.00
71897;BMP280;59767;51.344;12.362;2023-02-21T03:59:20;161213.66;;;10.01
71897;BMP280;59767;51.344;12.362;2023-02-21T04:02:25;161200.59;;;9.96
71897;BMP280;59767;51.344;12.362;2023-02-21T04:05:29;161204.53;;;9.97
71897;BMP280;59767;51.344;12.362;2023-02-21T04:08:32;161207.09;;;9.98
71897;BMP280;59767;51.344;12.362;2023-02-21T04:11:37;161195.34;;;9.94
71897;BMP280;59767;51.344;12.362;2023-02-21T04:14:40;161195.34;;;9.94
71897;BMP280;59767;51.344;12.362;2023-02-21T04:17:45;161195.34;;;9.94
71897;BMP280;59767;51.344;12.362;2023-02-21T04:20:49;161187.50;;;9.91
71897;BMP280;59767;51.344;12.362;2023-02-21T04:23:53;161195.34;;;9.94
71897;BMP280;59767;51.344;12.362;2023-02-21T04:26:57;161212.34;;;10.00
71897;BMP280;59767;51.344;12.362;2023-02-21T04:30:02;161187.50;;;9.91
71897;BMP280;59767;51.344;12.362;2023-02-21T04:33:06;161200.59;;;9.96
71897;BMP280;59767;51.344;12.362;2023-02-21T04:36:10;161200.59;;;9.96
71897;BMP280;59767;51.344;12.362;2023-02-21T04:39:14;161192.75;;;9.93
71897;BMP280;59767;51.344;12.362;2023-02-21T04:42:18;161197.94;;;9.95
71897;BMP280;59767;51.344;12.362;2023-02-21T04:45:22;161200.59;;;9.96
71897;BMP280;59767;51.344;12.362;2023-02-21T04:48:26;161194.03;;;9.93
71897;BMP280;59767;51.344;12.362;2023-02-21T04:51:30;161183.56;;;9.89
71897;BMP280;59767;51.344;12.362;2023-02-21T04:54:35;161191.41;;;9.92
71897;BMP280;59767;51.344;12.362;2023-02-21T04:57:39;161207.09;;;9.98
71897;BMP280;59767;51.344;12.362;2023-02-21T05:00:43;161190.09;;;9.92
71897;BMP280;59767;51.344;12.362;2023-02-21T05:03:47;161197.94;;;9.95
71897;BMP280;59767;51.344;12.362;2023-02-21T05:06:52;161182.28;;;9.89
71897;BMP280;59767;51.344;12.362;2023-02-21T05:09:56;161179.69;;;9.88
71897;BMP280;59767;51.344;12.362;2023-02-21T05:13:00;161169.16;;;9.84
71897;BMP280;59767;51.344;12.362;2023-02-21T05:16:04;161167.88;;;9.83
71897;BMP280;59767;51.344;12.362;2023-02-21T05:19:08;161153.50;;;9.78
71897;BMP280;59767;51.344;12.362;2023-02-21T05:22:13;161146.97;;;9.75
71897;BMP280;59767;51.344;12.362;2023-02-21T05:25:19;161165.25;;;9.82
71897;BMP280;59767;51.344;12.362;2023-02-21T05:28:24;161179.69;;;9.88
71897;BMP280;59767;51.344;12.362;2023-02-21T05:31:28;161165.25;;;9.82
71897;BMP280;59767;51.344;12.362;2023-02-21T05:34:34;161171.81;;;9.85
71897;BMP280;59767;51.344;12.362;2023-02-21T05:37:38;161177.03;;;9.87
71897;BMP280;59767;51.344;12.362;2023-02-21T05:40:42;161157.44;;;9.79
71897;BMP280;59767;51.344;12.362;2023-02-21T05:43:47;161175.75;;;9.86
71897;BMP280;59767;51.344;12.362;2023-02-21T05:46:54;161167.88;;;9.83
71897;BMP280;59767;51.344;12.362;2023-02-21T05:49:58;161171.81;;;9.85
71897;BMP280;59767;51.344;12.362;2023-02-21T05:53:02;161167.88;;;9.83
71897;BMP280;59767;51.344;12.362;2023-02-21T05:56:06;161166.56;;;9.83
71897;BMP280;59767;51.344;12.362;2023-02-21T05:59:15;161174.44;;;9.86
71897;BMP280;59767;51.344;12.362;2023-02-21T06:02:19;161161.31;;;9.81
71897;BMP280;59767;51.344;12.362;2023-02-21T06:05:23;161174.44;;;9.86
71897;BMP280;59767;51.344;12.362;2023-02-21T06:08:28;161171.81;;;9.85
71897;BMP280;59767;51.344;12.362;2023-02-21T06:11:33;161177.03;;;9.87
71897;BMP280;59767;51.344;12.362;2023-02-21T06:14:39;161188.81;;;9.91
71897;BMP280;59767;51.344;12.362;2023-02-21T06:17:43;161179.69;;;9.88
71897;BMP280;59767;51.344;12.362;2023-02-21T06:20:48;161192.75;;;9.93
71897;BMP280;59767;51.344;12.362;2023-02-21T06:23:52;161178.34;;;9.87
71897;BMP280;59767;51.344;12.362;2023-02-21T06:26:56;161188.81;;;9.91
71897;BMP280;59767;51.344;12.362;2023-02-21T06:30:01;161186.16;;;9.90
71897;BMP280;59767;51.344;12.362;2023-02-21T06:33:05;161174.44;;;9.86
71897;BMP280;59767;51.344;12.362;2023-02-21T06:36:13;161195.34;;;9.94
71897;BMP280;59767;51.344;12.362;2023-02-21T06:39:17;161212.34;;;10.00
71897;BMP280;59767;51.344;12.362;2023-02-21T06:42:21;161204.53;;;9.97
71897;BMP280;59767;51.344;12.362;2023-02-21T06:45:25;161214.94;;;10.01
71897;BMP280;59767;51.344;12.362;2023-02-21T06:48:30;161221.53;;;10.04
71897;BMP280;59767;51.344;12.362;2023-02-21T06:51:35;161218.88;;;10.03
71897;BMP280;59767;51.344;12.362;2023-02-21T06:54:39;161211.03;;;10.00
71897;BMP280;59767;51.344;12.362;2023-02-21T06:57:43;161207.09;;;9.98
71897;BMP280;59767;51.344;12.362;2023-02-21T07:00:47;161207.09;;;9.98
71897;BMP280;59767;51.344;12.362;2023-02-21T07:03:51;161212.34;;;10.00
71897;BMP280;59767;51.344;12.362;2023-02-21T07:06:55;161207.09;;;9.98
71897;BMP280;59767;51.344;12.362;2023-02-21T07:09:59;161231.94;;;10.08
71897;BMP280;59767;51.344;12.362;2023-02-21T07:13:03;161256.81;;;10.17
71897;BMP280;59767;51.344;12.362;2023-02-21T07:16:07;161259.47;;;10.18
71897;BMP280;59767;51.344;12.362;2023-02-21T07:19:11;161262.06;;;10.19
71897;BMP280;59767;51.344;12.362;2023-02-21T07:22:18;161273.81;;;10.24
71897;BMP280;59767;51.344;12.362;2023-02-21T07:25:28;161280.38;;;10.26
71897;BMP280;59767;51.344;12.362;2023-02-21T07:28:33;161300.00;;;10.34
71897;BMP280;59767;51.344;12.362;2023-02-21T07:31:37;161319.59;;;10.41
71897;BMP280;59767;51.344;12.362;2023-02-21T07:34:42;161341.84;;;10.50
71897;BMP280;59767;51.344;12.362;2023-02-21T07:37:47;161326.13;;;10.44
71897;BMP280;59767;51.344;12.362;2023-02-21T07:40:53;161331.38;;;10.46
71897;BMP280;59767;51.344;12.362;2023-02-21T07:43:57;161328.78;;;10.45
71897;BMP280;59767;51.344;12.362;2023-02-21T07:47:01;161340.53;;;10.49
71897;BMP280;59767;51.344;12.362;2023-02-21T07:50:06;161344.47;;;10.51
71897;BMP280;59767;51.344;12.362;2023-02-21T07:53:11;161362.78;;;10.58
71897;BMP280;59767;51.344;12.362;2023-02-21T07:56:15;161396.78;;;10.71
71897;BMP280;59767;51.344;12.362;2023-02-21T07:59:20;161454.41;;;10.93
71897;BMP280;59767;51.344;12.362;2023-02-21T08:02:24;161480.50;;;11.03
71897;BMP280;59767;51.344;12.362;2023-02-21T08:05:28;161467.44;;;10.98
71897;BMP280;59767;51.344;12.362;2023-02-21T08:08:33;161521.06;;;11.18
71897;BMP280;59767;51.344;12.362;2023-02-21T08:11:37;161525.03;;;11.20
71897;BMP280;59767;51.344;12.362;2023-02-21T08:14:42;161552.53;;;11.30
71897;BMP280;59767;51.344;12.362;2023-02-21T08:17:47;161535.53;;;11.24
71897;BMP280;59767;51.344;12.362;2023-02-21T08:20:54;161527.66;;;11.21
71897;BMP280;59767;51.344;12.362;2023-02-21T08:23:59;161536.78;;;11.24
71897;BMP280;59767;51.344;12.362;2023-02-21T08:27:03;161552.53;;;11.30
71897;BMP280;59767;51.344;12.362;2023-02-21T08:30:09;161547.25;;;11.28
71897;BMP280;59767;51.344;12.362;2023-02-21T08:33:14;161555.13;;;11.31
71897;BMP280;59767;51.344;12.362;2023-02-21T08:36:18;161585.22;;;11.43
71897;BMP280;59767;51.344;12.362;2023-02-21T08:39:22;161606.16;;;11.51
71897;BMP280;59767;51.344;12.362;2023-02-21T08:42:27;161620.53;;;11.56
71897;BMP280;59767;51.344;12.362;2023-02-21T08:45:31;161703.06;;;11.88
71897;BMP280;59767;51.344;12.362;2023-02-21T08:48:35;161790.72;;;12.21
71897;BMP280;59767;51.344;12.362;2023-02-21T08:51:40;161806.47;;;12.27
71897;BMP280;59767;51.344;12.362;2023-02-21T08:54:44;161828.69;;;12.36
71897;BMP280;59767;51.344;12.362;2023-02-21T08:57:50;161836.53;;;12.39
71897;BMP280;59767;51.344;12.362;2023-02-21T09:00:55;161810.41;;;12.29
71897;BMP280;59767;51.344;12.362;2023-02-21T09:04:03;161772.41;;;12.14
71897;BMP280;59767;51.344;12.362;2023-02-21T09:07:08;161718.75;;;11.94
71897;BMP280;59767;51.344;12.362;2023-02-21T09:10:12;161700.41;;;11.87
71897;BMP280;59767;51.344;12.362;2023-02-21T09:13:16;161670.34;;;11.75
71897;BMP280;59767;51.344;12.362;2023-02-21T09:16:20;161658.50;;;11.71
71897;BMP280;59767;51.344;12.362;2023-02-21T09:19:24;161683.38;;;11.80
71897;BMP280;59767;51.344;12.362;2023-02-21T09:22:28;161697.78;;;11.86
71897;BMP280;59767;51.344;12.362;2023-02-21T09:25:34;161703.06;;;11.88
71897;BMP280;59767;51.344;12.362;2023-02-21T09:28:38;161716.09;;;11.93
71897;BMP280;59767;51.344;12.362;2023-02-21T09:31:46;161726.56;;;11.97
71897;BMP280;59767;51.344;12.362;2023-02-21T09:34:50;161750.13;;;12.06
71897;BMP280;59767;51.344;12.362;2023-02-21T09:37:54;161742.31;;;12.03
71897;BMP280;59767;51.344;12.362;2023-02-21T09:41:04;161816.91;;;12.31
71897;BMP280;59767;51.344;12.362;2023-02-21T09:44:12;161813.00;;;12.30
71897;BMP280;59767;51.344;12.362;2023-02-21T09:47:27;161809.06;;;12.28
71897;BMP280;59767;51.344;12.362;2023-02-21T09:50:40;161813.00;;;12.30
71897;BMP280;59767;51.344;12.362;2023-02-21T09:53:47;161809.06;;;12.28
71897;BMP280;59767;51.344;12.362;2023-02-21T09:56:53;161866.69;;;12.50
71897;BMP280;59767;51.344;12.362;2023-02-21T09:59:57;161896.81;;;12.62
71897;BMP280;59767;51.344;12.362;2023-02-21T10:10:00;161819.56;;;12.32
71897;BMP280;59767;51.344;12.362;2023-02-21T10:13:36;161826.09;;;12.35
71897;BMP280;59767;51.344;12.362;2023-02-21T10:16:52;161815.63;;;12.31
71897;BMP280;59767;51.344;12.362;2023-02-21T10:20:05;161809.06;;;12.28
71897;BMP280;59767;51.344;12.362;2023-02-21T10:23:20;161778.97;;;12.17
71897;BMP280;59767;51.344;12.362;2023-02-21T10:26:27;161780.28;;;12.17
71897;BMP280;59767;51.344;12.362;2023-02-21T10:29:55;161784.16;;;12.19
71897;BMP280;59767;51.344;12.362;2023-02-21T10:33:02;161794.69;;;12.23
71897;BMP280;59767;51.344;12.362;2023-02-21T10:36:11;161799.88;;;12.25
71897;BMP280;59767;51.344;12.362;2023-02-21T10:39:21;161849.66;;;12.44
71897;BMP280;59767;51.344;12.362;2023-02-21T10:42:35;161865.41;;;12.50
71897;BMP280;59767;51.344;12.362;2023-02-21T10:45:46;161849.66;;;12.44
71897;BMP280;59767;51.344;12.362;2023-02-21T10:52:22;161856.22;;;12.46
71897;BMP280;59767;51.344;12.362;2023-02-21T10:55:27;161853.53;;;12.45
71897;BMP280;59767;51.344;12.362;2023-02-21T10:58:36;161833.97;;;12.38
71897;BMP280;59767;51.344;12.362;2023-02-21T11:01:42;161831.34;;;12.37
71897;BMP280;59767;51.344;12.362;2023-02-21T11:04:47;161793.38;;;12.22
71897;BMP280;59767;51.344;12.362;2023-02-21T11:08:02;161795.97;;;12.23
71897;BMP280;59767;51.344;12.362;2023-02-21T11:11:09;161810.41;;;12.29
71897;BMP280;59767;51.344;12.362;2023-02-21T11:17:25;161814.34;;;12.30
71897;BMP280;59767;51.344;12.362;2023-02-21T11:20:31;161799.88;;;12.25
71897;BMP280;59767;51.344;12.362;2023-02-21T11:23:36;161836.53;;;12.39
71897;BMP280;59767;51.344;12.362;2023-02-21T11:26:49;161849.66;;;12.44
71897;BMP280;59767;51.344;12.362;2023-02-21T11:29:54;161823.47;;;12.34
71897;BMP280;59767;51.344;12.362;2023-02-21T11:32:59;161799.88;;;12.25
71897;BMP280;59767;51.344;12.362;2023-02-21T11:36:11;161797.31;;;12.24
71897;BMP280;59767;51.344;12.362;2023-02-21T11:39:31;161809.06;;;12.28
71897;BMP280;59767;51.344;12.362;2023-02-21T11:42:35;161799.88;;;12.25
71897;BMP280;59767;51.344;12.362;2023-02-21T11:49:19;161795.97;;;12.23
71897;BMP280;59767;51.344;12.362;2023-02-21T11:52:34;161799.88;;;12.25
71897;BMP280;59767;51.344;12.362;2023-02-21T11:56:34;161824.75;;;12.34
71897;BMP280;59767;51.344;12.362;2023-02-21T12:09:46;161932.13;;;12.75
71897;BMP280;59767;51.344;12.362;2023-02-21T12:26:45;162177.06;;;13.69
71897;BMP280;59767;51.344;12.362;2023-02-21T12:30:18;162150.91;;;13.59
71897;BMP280;59767;51.344;12.362;2023-02-21T12:47:02;161987.16;;;12.96
71897;BMP280;59767;51.344;12.362;2023-02-21T12:50:24;161964.91;;;12.88
71897;BMP280;59767;51.344;12.362;2023-02-21T12:53:36;161922.97;;;12.72
71897;BMP280;59767;51.344;12.362;2023-02-21T12:56:57;161898.13;;;12.62
71897;BMP280;59767;51.344;12.362;2023-02-21T13:07:24;161905.97;;;12.65
71897;BMP280;59767;51.344;12.362;2023-02-21T13:10:34;161875.84;;;12.54
71897;BMP280;59767;51.344;12.362;2023-02-21T13:13:39;161862.75;;;12.49
71897;BMP280;59767;51.344;12.362;2023-02-21T13:16:43;161851.00;;;12.44
71897;BMP280;59767;51.344;12.362;2023-02-21T13:19:52;161853.53;;;12.45
71897;BMP280;59767;51.344;12.362;2023-02-21T13:30:37;161875.84;;;12.54
71897;BMP280;59767;51.344;12.362;2023-02-21T13:33:47;161878.44;;;12.55
71897;BMP280;59767;51.344;12.362;2023-02-21T13:36:51;161888.94;;;12.59
71897;BMP280;59767;51.344;12.362;2023-02-21T13:40:20;161894.19;;;12.61
71897;BMP280;59767;51.344;12.362;2023-02-21T13:43:30;161890.25;;;12.59
71897;BMP280;59767;51.344;12.362;2023-02-21T13:53:00;161840.47;;;12.40
71897;BMP280;59767;51.344;12.362;2023-02-21T13:59:32;161822.16;;;12.33
71897;BMP280;59767;51.344;12.362;2023-02-21T14:06:31;161858.81;;;12.47
71897;BMP280;59767;51.344;12.362;2023-02-21T14:09:39;161868.03;;;12.51
71897;BMP280;59767;51.344;12.362;2023-02-21T14:12:44;161900.75;;;12.63
71897;BMP280;59767;51.344;12.362;2023-02-21T14:15:55;161899.41;;;12.63
71897;BMP280;59767;51.344;12.362;2023-02-21T14:19:16;161900.75;;;12.63
71897;BMP280;59767;51.344;12.362;2023-02-21T14:22:27;161886.31;;;12.58
71897;BMP280;59767;51.344;12.362;2023-02-21T14:25:33;161890.25;;;12.59
71897;BMP280;59767;51.344;12.362;2023-02-21T14:29:00;161905.97;;;12.65
71897;BMP280;59767;51.344;12.362;2023-02-21T14:38:29;161937.41;;;12.77
71897;BMP280;59767;51.344;12.362;2023-02-21T14:52:52;162010.69;;;13.05
71897;BMP280;59767;51.344;12.362;2023-02-21T14:55:40;162000.25;;;13.01
71897;BMP280;59767;51.344;12.362;2023-02-21T14:58:54;161998.94;;;13.01
71897;BMP280;59767;51.344;12.362;2023-02-21T15:05:37;161955.75;;;12.84
71897;BMP280;59767;51.344;12.362;2023-02-21T15:08:46;161942.63;;;12.79
71897;BMP280;59767;51.344;12.362;2023-02-21T15:11:51;161949.16;;;12.82
71897;BMP280;59767;51.344;12.362;2023-02-21T15:14:56;161941.28;;;12.79
71897;BMP280;59767;51.344;12.362;2023-02-21T15:24:15;161928.19;;;12.74
71897;BMP280;59767;51.344;12.362;2023-02-21T15:27:20;161937.41;;;12.77
71897;BMP280;59767;51.344;12.362;2023-02-21T15:30:39;161915.16;;;12.69
71897;BMP280;59767;51.344;12.362;2023-02-21T15:33:45;161913.84;;;12.68
71897;BMP280;59767;51.344;12.362;2023-02-21T15:37:09;161903.34;;;12.64
71897;BMP280;59767;51.344;12.362;2023-02-21T15:40:20;161887.66;;;12.58
71897;BMP280;59767;51.344;12.362;2023-02-21T15:44:33;161896.81;;;12.62
71897;BMP280;59767;51.344;12.362;2023-02-21T15:47:19;161877.16;;;12.54
71897;BMP280;59767;51.344;12.362;2023-02-21T15:50:39;161854.88;;;12.46
71897;BMP280;59767;51.344;12.362;2023-02-21T15:57:23;161822.16;;;12.33
71897;BMP280;59767;51.344;12.362;2023-02-21T16:03:39;161794.69;;;12.23
71897;BMP280;59767;51.344;12.362;2023-02-21T16:06:49;161813.00;;;12.30
71897;BMP280;59767;51.344;12.362;2023-02-21T16:10:03;161758.00;;;12.09
71897;BMP280;59767;51.344;12.362;2023-02-21T16:13:09;161721.34;;;11.95
71897;BMP280;59767;51.344;12.362;2023-02-21T16:16:13;161699.13;;;11.86
71897;BMP280;59767;51.344;12.362;2023-02-21T16:19:18;161672.91;;;11.76
71897;BMP280;59767;51.344;12.362;2023-02-21T16:25:30;161615.31;;;11.54
71897;BMP280;59767;51.344;12.362;2023-02-21T16:28:38;161608.78;;;11.52
71897;BMP280;59767;51.344;12.362;2023-02-21T16:31:42;161611.44;;;11.53
71897;BMP280;59767;51.344;12.362;2023-02-21T16:34:49;161581.28;;;11.41
71897;BMP280;59767;51.344;12.362;2023-02-21T16:37:56;161551.19;;;11.30
71897;BMP280;59767;51.344;12.362;2023-02-21T16:41:01;161556.47;;;11.32
71897;BMP280;59767;51.344;12.362;2023-02-21T16:44:05;161565.59;;;11.35
71897;BMP280;59767;51.344;12.362;2023-02-21T16:47:14;161559.03;;;11.33
71897;BMP280;59767;51.344;12.362;2023-02-21T16:50:22;161545.94;;;11.28
71897;BMP280;59767;51.344;12.362;2023-02-21T16:53:27;161542.00;;;11.26
71897;BMP280;59767;51.344;12.362;2023-02-21T16:56:32;161545.94;;;11.28
71897;BMP280;59767;51.344;12.362;2023-02-21T16:59:36;161531.59;;;11.22
71897;BMP280;59767;51.344;12.362;2023-02-21T17:02:40;161521.06;;;11.18
71897;BMP280;59767;51.344;12.362;2023-02-21T17:05:44;161526.31;;;11.20
71897;BMP280;59767;51.344;12.362;2023-02-21T17:08:49;161549.94;;;11.29
71897;BMP280;59767;51.344;12.362;2023-02-21T17:11:54;161552.53;;;11.30
71897;BMP280;59767;51.344;12.362;2023-02-21T17:14:58;161534.19;;;11.23
71897;BMP280;59767;51.344;12.362;2023-02-21T17:18:03;161543.34;;;11.27
71897;BMP280;59767;51.344;12.362;2023-02-21T17:21:07;161539.41;;;11.25
71897;BMP280;59767;51.344;12.362;2023-02-21T17:24:12;161531.59;;;11.22
71897;BMP280;59767;51.344;12.362;2023-02-21T17:27:16;161538.06;;;11.25
71897;BMP280;59767;51.344;12.362;2023-02-21T17:30:22;161536.78;;;11.24
71897;BMP280;59767;51.344;12.362;2023-02-21T17:33:27;161548.59;;;11.29
71897;BMP280;59767;51.344;12.362;2023-02-21T17:36:31;161549.94;;;11.29
71897;BMP280;59767;51.344;12.362;2023-02-21T17:39:35;161555.13;;;11.31
71897;BMP280;59767;51.344;12.362;2023-02-21T17:42:39;161562.94;;;11.34
71897;BMP280;59767;51.344;12.362;2023-02-21T17:45:44;161566.88;;;11.36
71897;BMP280;59767;51.344;12.362;2023-02-21T17:48:48;161564.28;;;11.35
71897;BMP280;59767;51.344;12.362;2023-02-21T17:51:53;161572.16;;;11.38
71897;BMP280;59767;51.344;12.362;2023-02-21T17:54:58;161564.28;;;11.35
71897;BMP280;59767;51.344;12.362;2023-02-21T17:58:02;161560.34;;;11.33
71897;BMP280;59767;51.344;12.362;2023-02-21T18:01:06;161559.03;;;11.33
71897;BMP280;59767;51.344;12.362;2023-02-21T18:04:13;161542.00;;;11.26
71897;BMP280;59767;51.344;12.362;2023-02-21T18:07:18;161536.78;;;11.24
71897;BMP280;59767;51.344;12.362;2023-02-21T18:10:24;161553.84;;;11.31
71897;BMP280;59767;51.344;12.362;2023-02-21T18:13:28;161538.06;;;11.25
71897;BMP280;59767;51.344;12.362;2023-02-21T18:16:31;161555.13;;;11.31
71897;BMP280;59767;51.344;12.362;2023-02-21T18:19:35;161547.25;;;11.28
71897;BMP280;59767;51.344;12.362;2023-02-21T18:22:40;161539.41;;;11.25
71897;BMP280;59767;51.344;12.362;2023-02-21T18:25:44;161535.53;;;11.24
71897;BMP280;59767;51.344;12.362;2023-02-21T18:28:48;161532.91;;;11.23
71897;BMP280;59767;51.344;12.362;2023-02-21T18:31:53;161527.66;;;11.21
71897;BMP280;59767;51.344;12.362;2023-02-21T18:34:57;161545.94;;;11.28
71897;BMP280;59767;51.344;12.362;2023-02-21T18:38:02;161547.25;;;11.28
71897;BMP280;59767;51.344;12.362;2023-02-21T18:41:12;161545.94;;;11.28
71897;BMP280;59767;51.344;12.362;2023-02-21T18:44:17;161530.25;;;11.22
71897;BMP280;59767;51.344;12.362;2023-02-21T18:47:21;161536.78;;;11.24
71897;BMP280;59767;51.344;12.362;2023-02-21T18:50:27;161519.78;;;11.18
71897;BMP280;59767;51.344;12.362;2023-02-21T18:53:31;161513.25;;;11.15
71897;BMP280;59767;51.344;12.362;2023-02-21T18:56:36;161493.63;;;11.08
71897;BMP280;59767;51.344;12.362;2023-02-21T18:59:40;161504.09;;;11.12
71897;BMP280;59767;51.344;12.362;2023-02-21T19:02:44;161485.75;;;11.05
71897;BMP280;59767;51.344;12.362;2023-02-21T19:05:48;161488.38;;;11.06
71897;BMP280;59767;51.344;12.362;2023-02-21T19:08:55;161489.69;;;11.06
71897;BMP280;59767;51.344;12.362;2023-02-21T19:12:00;161493.63;;;11.08
71897;BMP280;59767;51.344;12.362;2023-02-21T19:15:06;161491.03;;;11.07
71897;BMP280;59767;51.344;12.362;2023-02-21T19:18:10;161497.56;;;11.09
71897;BMP280;59767;51.344;12.362;2023-02-21T19:21:15;161497.56;;;11.09
71897;BMP280;59767;51.344;12.362;2023-02-21T19:24:20;161518.47;;;11.17
71897;BMP280;59767;51.344;12.362;2023-02-21T19:27:24;161510.63;;;11.14
71897;BMP280;59767;51.344;12.362;2023-02-21T19:30:30;161492.31;;;11.07
71897;BMP280;59767;51.344;12.362;2023-02-21T19:33:36;161494.97;;;11.08
71897;BMP280;59767;51.344;12.362;2023-02-21T19:36:41;161470.09;;;10.99
71897;BMP280;59767;51.344;12.362;2023-02-21T19:39:45;161472.69;;;11.00
71897;BMP280;59767;51.344;12.362;2023-02-21T19:42:49;161476.63;;;11.01
71897;BMP280;59767;51.344;12.362;2023-02-21T19:45:53;161477.91;;;11.02
71897;BMP280;59767;51.344;12.362;2023-02-21T19:48:57;161466.16;;;10.97
71897;BMP280;59767;51.344;12.362;2023-02-21T19:52:02;161464.81;;;10.97
71897;BMP280;59767;51.344;12.362;2023-02-21T19:55:07;161458.28;;;10.94
71897;BMP280;59767;51.344;12.362;2023-02-21T19:58:12;161474.00;;;11.00
71897;BMP280;59767;51.344;12.362;2023-02-21T20:01:16;161475.34;;;11.01
71897;BMP280;59767;51.344;12.362;2023-02-21T20:04:21;161481.84;;;11.03
71897;BMP280;59767;51.344;12.362;2023-02-21T20:07:25;161480.50;;;11.03
71897;BMP280;59767;51.344;12.362;2023-02-21T20:10:29;161462.22;;;10.96